Sea Isle City, New Jersey
Current Conditions -  °F | °C
As of 3:55 PM on Thursday 27 Nov 2014 (Local Time) from KWWD Reporting Station
Clear Clear  
Wind Chill: 36°   Ceiling: Unl
Heat Index: 41°   Visibility: 10mi
Dew Point: 28°   Wind: 8mph
Humidity: 61%   Direction: 310°NW
Pressure: 30.01"   Gusts: NA
Location:  39.15°N, 74.69°W
Report Text: KWWD 272055Z AUTO 31007KT 10SM CLR 05/M02 A3001 RMK AO1 52007
Loading
Personal Weather Stations






























Interactive Weather Map New forecast layout! Learn more

10-Day Weather Forecast

Advertisements
Track Severe Weather on mobile